sensor_id;sensor_type;location;lat;lon;timestamp;P1;durP1;ratioP1;P2;durP2;ratioP2
56081;SDS011;41957;52.060;5.138;2022-08-19T00:00:28;17.55;;;9.88;;
56081;SDS011;41957;52.060;5.138;2022-08-19T00:02:54;17.13;;;9.65;;
56081;SDS011;41957;52.060;5.138;2022-08-19T00:05:19;17.85;;;10.13;;
56081;SDS011;41957;52.060;5.138;2022-08-19T00:07:46;16.65;;;9.70;;
56081;SDS011;41957;52.060;5.138;2022-08-19T00:10:14;18.15;;;10.25;;
56081;SDS011;41957;52.060;5.138;2022-08-19T00:12:40;18.27;;;10.02;;
56081;SDS011;41957;52.060;5.138;2022-08-19T00:15:08;18.75;;;10.40;;
56081;SDS011;41957;52.060;5.138;2022-08-19T00:17:38;19.58;;;10.57;;
56081;SDS011;41957;52.060;5.138;2022-08-19T00:20:04;18.38;;;10.20;;
56081;SDS011;41957;52.060;5.138;2022-08-19T00:22:31;18.08;;;10.35;;
56081;SDS011;41957;52.060;5.138;2022-08-19T00:24:58;17.48;;;10.38;;
56081;SDS011;41957;52.060;5.138;2022-08-19T00:27:23;18.08;;;9.95;;
56081;SDS011;41957;52.060;5.138;2022-08-19T00:29:48;19.48;;;10.57;;
56081;SDS011;41957;52.060;5.138;2022-08-19T00:32:14;17.65;;;9.80;;
56081;SDS011;41957;52.060;5.138;2022-08-19T00:34:39;19.27;;;10.30;;
56081;SDS011;41957;52.060;5.138;2022-08-19T00:37:05;18.83;;;10.50;;
56081;SDS011;41957;52.060;5.138;2022-08-19T00:39:30;18.23;;;10.27;;
56081;SDS011;41957;52.060;5.138;2022-08-19T00:41:55;18.55;;;10.32;;
56081;SDS011;41957;52.060;5.138;2022-08-19T00:44:23;16.80;;;9.80;;
56081;SDS011;41957;52.060;5.138;2022-08-19T00:46:51;17.70;;;9.57;;
56081;SDS011;41957;52.060;5.138;2022-08-19T00:52:16;17.85;;;9.60;;
56081;SDS011;41957;52.060;5.138;2022-08-19T00:54:46;18.13;;;10.25;;
56081;SDS011;41957;52.060;5.138;2022-08-19T00:57:14;16.70;;;9.07;;
56081;SDS011;41957;52.060;5.138;2022-08-19T00:59:42;18.45;;;9.88;;
56081;SDS011;41957;52.060;5.138;2022-08-19T01:02:11;18.13;;;10.25;;
56081;SDS011;41957;52.060;5.138;2022-08-19T01:04:36;18.23;;;10.00;;
56081;SDS011;41957;52.060;5.138;2022-08-19T01:07:01;18.17;;;9.93;;
56081;SDS011;41957;52.060;5.138;2022-08-19T01:09:27;17.90;;;9.77;;
56081;SDS011;41957;52.060;5.138;2022-08-19T01:11:54;18.65;;;10.98;;
56081;SDS011;41957;52.060;5.138;2022-08-19T01:14:20;17.45;;;9.88;;
56081;SDS011;41957;52.060;5.138;2022-08-19T01:16:46;17.63;;;9.82;;
56081;SDS011;41957;52.060;5.138;2022-08-19T01:19:54;17.38;;;9.32;;
56081;SDS011;41957;52.060;5.138;2022-08-19T01:22:03;17.70;;;9.35;;
56081;SDS011;41957;52.060;5.138;2022-08-19T01:24:33;16.92;;;9.45;;
56081;SDS011;41957;52.060;5.138;2022-08-19T01:26:59;16.98;;;9.40;;
56081;SDS011;41957;52.060;5.138;2022-08-19T01:29:29;17.80;;;9.95;;
56081;SDS011;41957;52.060;5.138;2022-08-19T01:31:54;16.83;;;9.23;;
56081;SDS011;41957;52.060;5.138;2022-08-19T01:34:20;18.55;;;10.02;;
56081;SDS011;41957;52.060;5.138;2022-08-19T01:36:46;17.13;;;9.23;;
56081;SDS011;41957;52.060;5.138;2022-08-19T01:39:15;17.55;;;9.50;;
56081;SDS011;41957;52.060;5.138;2022-08-19T01:41:44;16.98;;;9.73;;
56081;SDS011;41957;52.060;5.138;2022-08-19T01:44:10;17.70;;;10.07;;
56081;SDS011;41957;52.060;5.138;2022-08-19T01:46:35;17.77;;;9.77;;
56081;SDS011;41957;52.060;5.138;2022-08-19T01:49:01;17.88;;;9.75;;
56081;SDS011;41957;52.060;5.138;2022-08-19T01:51:28;16.52;;;9.10;;
56081;SDS011;41957;52.060;5.138;2022-08-19T01:53:55;17.38;;;9.63;;
56081;SDS011;41957;52.060;5.138;2022-08-19T01:56:20;16.45;;;8.82;;
56081;SDS011;41957;52.060;5.138;2022-08-19T01:58:51;17.10;;;9.57;;
56081;SDS011;41957;52.060;5.138;2022-08-19T02:01:27;17.80;;;9.13;;
56081;SDS011;41957;52.060;5.138;2022-08-19T02:03:57;19.35;;;10.00;;
56081;SDS011;41957;52.060;5.138;2022-08-19T02:06:23;17.15;;;9.57;;
56081;SDS011;41957;52.060;5.138;2022-08-19T02:08:49;16.80;;;9.32;;
56081;SDS011;41957;52.060;5.138;2022-08-19T02:11:22;17.52;;;9.40;;
56081;SDS011;41957;52.060;5.138;2022-08-19T02:13:51;17.00;;;8.82;;
56081;SDS011;41957;52.060;5.138;2022-08-19T02:16:18;17.55;;;9.40;;
56081;SDS011;41957;52.060;5.138;2022-08-19T02:18:44;17.17;;;9.25;;
56081;SDS011;41957;52.060;5.138;2022-08-19T02:21:10;16.50;;;9.45;;
56081;SDS011;41957;52.060;5.138;2022-08-19T02:23:36;16.02;;;8.60;;
56081;SDS011;41957;52.060;5.138;2022-08-19T02:26:01;17.73;;;9.43;;
56081;SDS011;41957;52.060;5.138;2022-08-19T02:28:26;17.52;;;9.60;;
56081;SDS011;41957;52.060;5.138;2022-08-19T02:30:52;17.67;;;9.65;;
56081;SDS011;41957;52.060;5.138;2022-08-19T02:33:17;17.15;;;9.32;;
56081;SDS011;41957;52.060;5.138;2022-08-19T02:35:46;16.30;;;8.73;;
56081;SDS011;41957;52.060;5.138;2022-08-19T02:38:11;16.73;;;9.35;;
56081;SDS011;41957;52.060;5.138;2022-08-19T02:40:54;16.58;;;9.07;;
56081;SDS011;41957;52.060;5.138;2022-08-19T02:43:22;16.40;;;9.25;;
56081;SDS011;41957;52.060;5.138;2022-08-19T02:45:48;17.20;;;8.75;;
56081;SDS011;41957;52.060;5.138;2022-08-19T02:48:15;16.35;;;8.88;;
56081;SDS011;41957;52.060;5.138;2022-08-19T02:50:42;16.10;;;8.60;;
56081;SDS011;41957;52.060;5.138;2022-08-19T02:53:07;16.67;;;8.70;;
56081;SDS011;41957;52.060;5.138;2022-08-19T02:55:33;16.48;;;9.15;;
56081;SDS011;41957;52.060;5.138;2022-08-19T02:57:59;18.75;;;9.93;;
56081;SDS011;41957;52.060;5.138;2022-08-19T03:00:25;16.52;;;8.82;;
56081;SDS011;41957;52.060;5.138;2022-08-19T03:02:51;17.02;;;8.88;;
56081;SDS011;41957;52.060;5.138;2022-08-19T03:05:17;16.95;;;9.00;;
56081;SDS011;41957;52.060;5.138;2022-08-19T03:07:42;16.58;;;9.07;;
56081;SDS011;41957;52.060;5.138;2022-08-19T03:10:07;16.27;;;9.07;;
56081;SDS011;41957;52.060;5.138;2022-08-19T03:12:37;16.42;;;8.95;;
56081;SDS011;41957;52.060;5.138;2022-08-19T03:15:05;16.45;;;9.13;;
56081;SDS011;41957;52.060;5.138;2022-08-19T03:17:32;15.80;;;8.73;;
56081;SDS011;41957;52.060;5.138;2022-08-19T03:19:58;16.70;;;8.98;;
56081;SDS011;41957;52.060;5.138;2022-08-19T03:22:23;16.67;;;9.32;;
56081;SDS011;41957;52.060;5.138;2022-08-19T03:24:50;15.48;;;8.82;;
56081;SDS011;41957;52.060;5.138;2022-08-19T03:27:15;15.82;;;8.50;;
56081;SDS011;41957;52.060;5.138;2022-08-19T03:29:42;17.88;;;9.55;;
56081;SDS011;41957;52.060;5.138;2022-08-19T03:32:08;16.27;;;9.13;;
56081;SDS011;41957;52.060;5.138;2022-08-19T03:34:35;16.20;;;8.95;;
56081;SDS011;41957;52.060;5.138;2022-08-19T03:37:04;16.65;;;9.20;;
56081;SDS011;41957;52.060;5.138;2022-08-19T03:39:31;16.70;;;9.27;;
56081;SDS011;41957;52.060;5.138;2022-08-19T03:41:58;17.35;;;9.02;;
56081;SDS011;41957;52.060;5.138;2022-08-19T03:44:27;16.77;;;9.15;;
56081;SDS011;41957;52.060;5.138;2022-08-19T03:46:54;16.23;;;8.60;;
56081;SDS011;41957;52.060;5.138;2022-08-19T03:49:22;17.00;;;8.70;;
56081;SDS011;41957;52.060;5.138;2022-08-19T03:51:49;17.85;;;9.57;;
56081;SDS011;41957;52.060;5.138;2022-08-19T03:54:16;16.35;;;8.43;;
56081;SDS011;41957;52.060;5.138;2022-08-19T03:56:44;16.45;;;9.10;;
56081;SDS011;41957;52.060;5.138;2022-08-19T03:59:12;15.98;;;8.57;;
56081;SDS011;41957;52.060;5.138;2022-08-19T04:01:39;16.73;;;8.45;;
56081;SDS011;41957;52.060;5.138;2022-08-19T04:04:05;16.88;;;9.48;;
56081;SDS011;41957;52.060;5.138;2022-08-19T04:06:32;16.88;;;9.18;;
56081;SDS011;41957;52.060;5.138;2022-08-19T04:09:00;17.42;;;9.70;;
56081;SDS011;41957;52.060;5.138;2022-08-19T04:11:29;17.15;;;9.65;;
56081;SDS011;41957;52.060;5.138;2022-08-19T04:14:00;16.85;;;9.73;;
56081;SDS011;41957;52.060;5.138;2022-08-19T04:16:27;17.02;;;9.15;;
56081;SDS011;41957;52.060;5.138;2022-08-19T04:18:56;17.05;;;9.65;;
56081;SDS011;41957;52.060;5.138;2022-08-19T04:21:25;16.30;;;9.25;;
56081;SDS011;41957;52.060;5.138;2022-08-19T04:23:51;15.95;;;8.88;;
56081;SDS011;41957;52.060;5.138;2022-08-19T04:26:19;18.45;;;10.18;;
56081;SDS011;41957;52.060;5.138;2022-08-19T04:28:47;16.92;;;8.68;;
56081;SDS011;41957;52.060;5.138;2022-08-19T04:31:13;17.40;;;9.48;;
56081;SDS011;41957;52.060;5.138;2022-08-19T04:33:53;15.88;;;8.80;;
56081;SDS011;41957;52.060;5.138;2022-08-19T04:36:20;16.40;;;9.02;;
56081;SDS011;41957;52.060;5.138;2022-08-19T04:38:47;16.80;;;9.25;;
56081;SDS011;41957;52.060;5.138;2022-08-19T04:41:13;16.65;;;9.25;;
56081;SDS011;41957;52.060;5.138;2022-08-19T04:43:58;17.08;;;8.77;;
56081;SDS011;41957;52.060;5.138;2022-08-19T04:46:24;16.15;;;9.13;;
56081;SDS011;41957;52.060;5.138;2022-08-19T04:48:49;17.48;;;9.55;;
56081;SDS011;41957;52.060;5.138;2022-08-19T04:51:14;16.55;;;9.20;;
56081;SDS011;41957;52.060;5.138;2022-08-19T04:53:41;18.02;;;9.57;;
56081;SDS011;41957;52.060;5.138;2022-08-19T04:58:36;16.83;;;8.98;;
56081;SDS011;41957;52.060;5.138;2022-08-19T05:01:03;15.98;;;8.50;;
56081;SDS011;41957;52.060;5.138;2022-08-19T05:03:29;16.42;;;8.13;;
56081;SDS011;41957;52.060;5.138;2022-08-19T05:05:58;16.52;;;9.23;;
56081;SDS011;41957;52.060;5.138;2022-08-19T05:08:28;17.67;;;9.02;;
56081;SDS011;41957;52.060;5.138;2022-08-19T05:10:54;17.17;;;8.55;;
56081;SDS011;41957;52.060;5.138;2022-08-19T05:13:19;15.63;;;8.70;;
56081;SDS011;41957;52.060;5.138;2022-08-19T05:15:53;15.68;;;8.20;;
56081;SDS011;41957;52.060;5.138;2022-08-19T05:18:20;15.60;;;7.93;;
56081;SDS011;41957;52.060;5.138;2022-08-19T05:21:08;15.43;;;8.00;;
56081;SDS011;41957;52.060;5.138;2022-08-19T05:23:53;16.95;;;8.02;;
56081;SDS011;41957;52.060;5.138;2022-08-19T05:26:19;16.98;;;8.07;;
56081;SDS011;41957;52.060;5.138;2022-08-19T05:28:44;15.82;;;7.97;;
56081;SDS011;41957;52.060;5.138;2022-08-19T05:31:09;16.73;;;8.85;;
56081;SDS011;41957;52.060;5.138;2022-08-19T05:33:35;17.05;;;9.13;;
56081;SDS011;41957;52.060;5.138;2022-08-19T05:36:01;15.70;;;8.23;;
56081;SDS011;41957;52.060;5.138;2022-08-19T05:38:27;15.85;;;8.73;;
56081;SDS011;41957;52.060;5.138;2022-08-19T05:40:53;15.20;;;7.68;;
56081;SDS011;41957;52.060;5.138;2022-08-19T05:43:18;14.80;;;7.22;;
56081;SDS011;41957;52.060;5.138;2022-08-19T05:45:44;15.00;;;7.43;;
56081;SDS011;41957;52.060;5.138;2022-08-19T05:48:09;15.70;;;7.97;;
56081;SDS011;41957;52.060;5.138;2022-08-19T05:50:37;16.25;;;8.50;;
56081;SDS011;41957;52.060;5.138;2022-08-19T05:53:04;16.67;;;8.52;;
56081;SDS011;41957;52.060;5.138;2022-08-19T05:55:29;16.27;;;7.97;;
56081;SDS011;41957;52.060;5.138;2022-08-19T05:57:55;16.20;;;8.00;;
56081;SDS011;41957;52.060;5.138;2022-08-19T06:00:21;16.20;;;8.10;;
56081;SDS011;41957;52.060;5.138;2022-08-19T06:02:46;30.83;;;18.42;;
56081;SDS011;41957;52.060;5.138;2022-08-19T06:05:12;22.67;;;12.38;;
56081;SDS011;41957;52.060;5.138;2022-08-19T06:07:56;15.07;;;8.63;;
56081;SDS011;41957;52.060;5.138;2022-08-19T06:10:21;16.58;;;8.68;;
56081;SDS011;41957;52.060;5.138;2022-08-19T06:12:47;16.45;;;8.32;;
56081;SDS011;41957;52.060;5.138;2022-08-19T06:15:14;16.63;;;8.45;;
56081;SDS011;41957;52.060;5.138;2022-08-19T06:17:40;17.10;;;8.82;;
56081;SDS011;41957;52.060;5.138;2022-08-19T06:20:10;16.02;;;8.00;;
56081;SDS011;41957;52.060;5.138;2022-08-19T06:22:41;16.75;;;9.02;;
56081;SDS011;41957;52.060;5.138;2022-08-19T06:25:08;18.30;;;9.30;;
56081;SDS011;41957;52.060;5.138;2022-08-19T06:27:35;17.15;;;9.00;;
56081;SDS011;41957;52.060;5.138;2022-08-19T06:30:01;16.73;;;8.73;;
56081;SDS011;41957;52.060;5.138;2022-08-19T06:32:27;16.48;;;8.30;;
56081;SDS011;41957;52.060;5.138;2022-08-19T06:34:52;16.05;;;8.63;;
56081;SDS011;41957;52.060;5.138;2022-08-19T06:37:18;16.98;;;8.55;;
56081;SDS011;41957;52.060;5.138;2022-08-19T06:39:43;18.65;;;9.38;;
56081;SDS011;41957;52.060;5.138;2022-08-19T06:42:11;17.80;;;9.43;;
56081;SDS011;41957;52.060;5.138;2022-08-19T06:44:41;19.63;;;10.27;;
56081;SDS011;41957;52.060;5.138;2022-08-19T06:47:09;17.77;;;9.88;;
56081;SDS011;41957;52.060;5.138;2022-08-19T06:49:36;17.35;;;9.55;;
56081;SDS011;41957;52.060;5.138;2022-08-19T06:52:02;19.95;;;10.65;;
56081;SDS011;41957;52.060;5.138;2022-08-19T06:54:29;19.27;;;10.52;;
56081;SDS011;41957;52.060;5.138;2022-08-19T06:56:55;18.42;;;10.50;;
56081;SDS011;41957;52.060;5.138;2022-08-19T06:59:22;33.55;;;19.48;;
56081;SDS011;41957;52.060;5.138;2022-08-19T07:01:53;36.97;;;21.90;;
56081;SDS011;41957;52.060;5.138;2022-08-19T07:04:21;40.92;;;22.80;;
56081;SDS011;41957;52.060;5.138;2022-08-19T07:06:49;39.90;;;22.52;;
56081;SDS011;41957;52.060;5.138;2022-08-19T07:09:21;40.15;;;22.65;;
56081;SDS011;41957;52.060;5.138;2022-08-19T07:11:47;39.17;;;23.27;;
56081;SDS011;41957;52.060;5.138;2022-08-19T07:14:15;42.08;;;24.38;;
56081;SDS011;41957;52.060;5.138;2022-08-19T07:16:43;36.83;;;22.55;;
56081;SDS011;41957;52.060;5.138;2022-08-19T07:19:10;34.55;;;21.58;;
56081;SDS011;41957;52.060;5.138;2022-08-19T07:21:37;39.72;;;20.67;;
56081;SDS011;41957;52.060;5.138;2022-08-19T07:24:02;33.08;;;17.60;;
56081;SDS011;41957;52.060;5.138;2022-08-19T07:26:32;30.20;;;17.48;;
56081;SDS011;41957;52.060;5.138;2022-08-19T07:29:06;25.95;;;14.52;;
56081;SDS011;41957;52.060;5.138;2022-08-19T07:31:32;25.85;;;15.25;;
56081;SDS011;41957;52.060;5.138;2022-08-19T07:34:02;26.77;;;15.50;;
56081;SDS011;41957;52.060;5.138;2022-08-19T07:36:34;25.95;;;14.63;;
56081;SDS011;41957;52.060;5.138;2022-08-19T07:39:03;26.73;;;15.38;;
56081;SDS011;41957;52.060;5.138;2022-08-19T07:41:31;25.42;;;15.68;;
56081;SDS011;41957;52.060;5.138;2022-08-19T07:43:58;24.25;;;15.65;;
56081;SDS011;41957;52.060;5.138;2022-08-19T07:46:28;25.30;;;14.98;;
56081;SDS011;41957;52.060;5.138;2022-08-19T07:48:56;26.50;;;15.07;;
56081;SDS011;41957;52.060;5.138;2022-08-19T07:51:21;25.02;;;14.32;;
56081;SDS011;41957;52.060;5.138;2022-08-19T07:53:47;24.25;;;14.00;;
56081;SDS011;41957;52.060;5.138;2022-08-19T07:56:15;23.92;;;14.23;;
56081;SDS011;41957;52.060;5.138;2022-08-19T07:58:43;25.88;;;15.77;;
56081;SDS011;41957;52.060;5.138;2022-08-19T08:01:12;22.05;;;14.40;;
56081;SDS011;41957;52.060;5.138;2022-08-19T08:03:40;24.63;;;14.88;;
56081;SDS011;41957;52.060;5.138;2022-08-19T08:06:25;24.83;;;14.38;;
56081;SDS011;41957;52.060;5.138;2022-08-19T08:09:10;26.88;;;15.75;;
56081;SDS011;41957;52.060;5.138;2022-08-19T08:11:36;26.30;;;15.35;;
56081;SDS011;41957;52.060;5.138;2022-08-19T08:14:14;25.38;;;14.82;;
56081;SDS011;41957;52.060;5.138;2022-08-19T08:16:41;22.92;;;14.68;;
56081;SDS011;41957;52.060;5.138;2022-08-19T08:19:09;26.55;;;15.60;;
56081;SDS011;41957;52.060;5.138;2022-08-19T08:21:35;24.30;;;15.23;;
56081;SDS011;41957;52.060;5.138;2022-08-19T08:24:00;26.42;;;14.70;;
56081;SDS011;41957;52.060;5.138;2022-08-19T08:26:26;24.40;;;15.05;;
56081;SDS011;41957;52.060;5.138;2022-08-19T08:28:51;29.85;;;16.85;;
56081;SDS011;41957;52.060;5.138;2022-08-19T08:31:17;25.63;;;15.93;;
56081;SDS011;41957;52.060;5.138;2022-08-19T08:33:46;24.42;;;15.10;;
56081;SDS011;41957;52.060;5.138;2022-08-19T08:36:12;24.35;;;14.40;;
56081;SDS011;41957;52.060;5.138;2022-08-19T08:38:39;24.95;;;15.02;;
56081;SDS011;41957;52.060;5.138;2022-08-19T08:41:18;23.75;;;14.63;;
56081;SDS011;41957;52.060;5.138;2022-08-19T08:43:53;25.90;;;14.73;;
56081;SDS011;41957;52.060;5.138;2022-08-19T08:46:30;24.77;;;14.80;;
56081;SDS011;41957;52.060;5.138;2022-08-19T08:54:37;25.70;;;14.30;;
56081;SDS011;41957;52.060;5.138;2022-08-19T08:57:07;22.25;;;14.30;;
56081;SDS011;41957;52.060;5.138;2022-08-19T08:59:39;26.05;;;14.43;;
56081;SDS011;41957;52.060;5.138;2022-08-19T09:02:06;24.23;;;14.00;;
56081;SDS011;41957;52.060;5.138;2022-08-19T09:04:33;22.02;;;13.77;;
56081;SDS011;41957;52.060;5.138;2022-08-19T09:09:57;24.08;;;14.15;;
56081;SDS011;41957;52.060;5.138;2022-08-19T09:15:05;24.08;;;14.32;;
56081;SDS011;41957;52.060;5.138;2022-08-19T09:17:33;24.60;;;13.43;;
56081;SDS011;41957;52.060;5.138;2022-08-19T09:22:39;26.83;;;14.77;;
56081;SDS011;41957;52.060;5.138;2022-08-19T09:25:09;24.65;;;14.68;;
56081;SDS011;41957;52.060;5.138;2022-08-19T09:27:36;24.08;;;15.50;;
56081;SDS011;41957;52.060;5.138;2022-08-19T09:30:03;23.88;;;14.80;;
56081;SDS011;41957;52.060;5.138;2022-08-19T09:32:30;25.00;;;14.82;;
56081;SDS011;41957;52.060;5.138;2022-08-19T09:34:56;22.20;;;14.43;;
56081;SDS011;41957;52.060;5.138;2022-08-19T09:37:23;22.90;;;14.57;;
56081;SDS011;41957;52.060;5.138;2022-08-19T09:39:49;24.30;;;15.65;;
56081;SDS011;41957;52.060;5.138;2022-08-19T09:42:15;24.52;;;15.13;;
56081;SDS011;41957;52.060;5.138;2022-08-19T09:44:41;23.55;;;15.20;;
56081;SDS011;41957;52.060;5.138;2022-08-19T09:47:07;23.15;;;14.32;;
56081;SDS011;41957;52.060;5.138;2022-08-19T09:49:33;24.40;;;14.35;;
56081;SDS011;41957;52.060;5.138;2022-08-19T09:51:59;23.60;;;14.88;;
56081;SDS011;41957;52.060;5.138;2022-08-19T09:54:24;25.35;;;14.50;;
56081;SDS011;41957;52.060;5.138;2022-08-19T09:56:51;23.77;;;15.30;;
56081;SDS011;41957;52.060;5.138;2022-08-19T09:59:20;23.25;;;14.70;;
56081;SDS011;41957;52.060;5.138;2022-08-19T10:01:46;23.42;;;14.65;;
56081;SDS011;41957;52.060;5.138;2022-08-19T10:04:11;22.67;;;14.68;;
56081;SDS011;41957;52.060;5.138;2022-08-19T10:06:38;20.95;;;14.20;;
56081;SDS011;41957;52.060;5.138;2022-08-19T10:09:05;22.15;;;14.95;;
56081;SDS011;41957;52.060;5.138;2022-08-19T10:11:32;25.40;;;14.50;;
56081;SDS011;41957;52.060;5.138;2022-08-19T10:13:59;35.92;;;21.98;;
56081;SDS011;41957;52.060;5.138;2022-08-19T10:16:25;34.83;;;21.75;;
56081;SDS011;41957;52.060;5.138;2022-08-19T10:18:56;34.30;;;23.05;;
56081;SDS011;41957;52.060;5.138;2022-08-19T10:21:23;34.10;;;22.00;;
56081;SDS011;41957;52.060;5.138;2022-08-19T10:23:51;36.72;;;22.50;;
56081;SDS011;41957;52.060;5.138;2022-08-19T10:26:24;34.67;;;22.17;;
56081;SDS011;41957;52.060;5.138;2022-08-19T10:28:52;35.60;;;22.40;;
56081;SDS011;41957;52.060;5.138;2022-08-19T10:31:19;36.50;;;22.92;;
56081;SDS011;41957;52.060;5.138;2022-08-19T10:33:48;40.30;;;24.00;;
56081;SDS011;41957;52.060;5.138;2022-08-19T10:36:16;36.08;;;23.02;;
56081;SDS011;41957;52.060;5.138;2022-08-19T10:38:49;40.55;;;22.58;;
56081;SDS011;41957;52.060;5.138;2022-08-19T10:43:45;38.08;;;22.85;;
56081;SDS011;41957;52.060;5.138;2022-08-19T10:46:12;39.92;;;22.27;;
56081;SDS011;41957;52.060;5.138;2022-08-19T10:48:39;39.10;;;22.20;;
56081;SDS011;41957;52.060;5.138;2022-08-19T10:51:05;39.60;;;23.60;;
56081;SDS011;41957;52.060;5.138;2022-08-19T10:53:50;33.55;;;20.80;;
56081;SDS011;41957;52.060;5.138;2022-08-19T10:56:16;32.88;;;21.05;;
56081;SDS011;41957;52.060;5.138;2022-08-19T10:59:00;38.28;;;22.02;;
56081;SDS011;41957;52.060;5.138;2022-08-19T11:01:26;33.50;;;20.95;;
56081;SDS011;41957;52.060;5.138;2022-08-19T11:03:52;36.85;;;22.95;;
56081;SDS011;41957;52.060;5.138;2022-08-19T11:06:18;36.60;;;22.13;;
56081;SDS011;41957;52.060;5.138;2022-08-19T11:08:44;37.10;;;22.25;;
56081;SDS011;41957;52.060;5.138;2022-08-19T11:11:10;36.72;;;22.50;;
56081;SDS011;41957;52.060;5.138;2022-08-19T11:13:38;29.38;;;17.35;;
56081;SDS011;41957;52.060;5.138;2022-08-19T11:18:33;31.38;;;17.42;;
56081;SDS011;41957;52.060;5.138;2022-08-19T11:21:25;25.33;;;16.90;;
56081;SDS011;41957;52.060;5.138;2022-08-19T11:23:54;30.20;;;17.67;;
56081;SDS011;41957;52.060;5.138;2022-08-19T11:26:21;24.63;;;16.65;;
56081;SDS011;41957;52.060;5.138;2022-08-19T11:28:48;27.55;;;15.70;;
56081;SDS011;41957;52.060;5.138;2022-08-19T11:31:17;26.75;;;17.05;;
56081;SDS011;41957;52.060;5.138;2022-08-19T11:33:44;27.33;;;15.90;;
56081;SDS011;41957;52.060;5.138;2022-08-19T11:36:11;23.00;;;15.80;;
56081;SDS011;41957;52.060;5.138;2022-08-19T11:38:37;23.52;;;15.98;;
56081;SDS011;41957;52.060;5.138;2022-08-19T11:41:04;23.83;;;15.35;;
56081;SDS011;41957;52.060;5.138;2022-08-19T11:43:32;24.25;;;15.48;;
56081;SDS011;41957;52.060;5.138;2022-08-19T11:45:57;25.75;;;15.35;;
56081;SDS011;41957;52.060;5.138;2022-08-19T11:48:23;23.38;;;14.85;;
56081;SDS011;41957;52.060;5.138;2022-08-19T11:50:50;24.60;;;14.93;;
56081;SDS011;41957;52.060;5.138;2022-08-19T11:53:17;25.42;;;16.23;;
56081;SDS011;41957;52.060;5.138;2022-08-19T11:55:45;25.02;;;15.95;;
56081;SDS011;41957;52.060;5.138;2022-08-19T11:58:11;22.77;;;15.10;;
56081;SDS011;41957;52.060;5.138;2022-08-19T12:00:38;23.60;;;15.18;;
56081;SDS011;41957;52.060;5.138;2022-08-19T12:03:04;22.08;;;14.75;;
56081;SDS011;41957;52.060;5.138;2022-08-19T12:05:30;23.55;;;13.98;;
56081;SDS011;41957;52.060;5.138;2022-08-19T12:07:55;22.65;;;14.57;;
56081;SDS011;41957;52.060;5.138;2022-08-19T12:10:21;24.52;;;14.52;;
56081;SDS011;41957;52.060;5.138;2022-08-19T12:12:47;22.88;;;14.15;;
56081;SDS011;41957;52.060;5.138;2022-08-19T12:15:13;22.90;;;14.05;;
56081;SDS011;41957;52.060;5.138;2022-08-19T12:17:39;22.15;;;14.13;;
56081;SDS011;41957;52.060;5.138;2022-08-19T12:20:07;21.13;;;13.50;;
56081;SDS011;41957;52.060;5.138;2022-08-19T12:22:35;22.27;;;14.32;;
56081;SDS011;41957;52.060;5.138;2022-08-19T12:25:01;23.17;;;13.95;;
56081;SDS011;41957;52.060;5.138;2022-08-19T12:27:27;21.83;;;14.20;;
56081;SDS011;41957;52.060;5.138;2022-08-19T12:29:53;23.30;;;13.38;;
56081;SDS011;41957;52.060;5.138;2022-08-19T12:32:18;21.63;;;12.82;;
56081;SDS011;41957;52.060;5.138;2022-08-19T12:34:43;19.52;;;12.35;;
56081;SDS011;41957;52.060;5.138;2022-08-19T12:37:09;21.88;;;13.63;;
56081;SDS011;41957;52.060;5.138;2022-08-19T12:39:36;19.38;;;12.18;;
56081;SDS011;41957;52.060;5.138;2022-08-19T12:42:04;19.98;;;12.50;;
56081;SDS011;41957;52.060;5.138;2022-08-19T12:44:30;22.08;;;11.93;;
56081;SDS011;41957;52.060;5.138;2022-08-19T12:46:57;20.60;;;11.50;;
56081;SDS011;41957;52.060;5.138;2022-08-19T12:49:22;20.10;;;11.18;;
56081;SDS011;41957;52.060;5.138;2022-08-19T12:51:48;19.38;;;11.52;;
56081;SDS011;41957;52.060;5.138;2022-08-19T12:54:14;19.50;;;11.32;;
56081;SDS011;41957;52.060;5.138;2022-08-19T12:56:39;18.17;;;11.25;;
56081;SDS011;41957;52.060;5.138;2022-08-19T12:59:05;20.80;;;11.82;;
56081;SDS011;41957;52.060;5.138;2022-08-19T13:01:33;19.27;;;10.07;;
56081;SDS011;41957;52.060;5.138;2022-08-19T13:03:58;18.27;;;10.27;;
56081;SDS011;41957;52.060;5.138;2022-08-19T13:06:25;17.73;;;10.65;;
56081;SDS011;41957;52.060;5.138;2022-08-19T13:08:51;18.25;;;10.15;;
56081;SDS011;41957;52.060;5.138;2022-08-19T13:11:17;16.55;;;9.85;;
56081;SDS011;41957;52.060;5.138;2022-08-19T13:13:45;19.45;;;10.25;;
56081;SDS011;41957;52.060;5.138;2022-08-19T13:16:13;21.02;;;10.50;;
56081;SDS011;41957;52.060;5.138;2022-08-19T13:18:40;18.40;;;9.90;;
56081;SDS011;41957;52.060;5.138;2022-08-19T13:21:07;19.52;;;9.63;;
56081;SDS011;41957;52.060;5.138;2022-08-19T13:23:36;18.77;;;9.50;;
56081;SDS011;41957;52.060;5.138;2022-08-19T13:26:03;18.80;;;9.38;;
56081;SDS011;41957;52.060;5.138;2022-08-19T13:28:31;20.17;;;9.57;;
56081;SDS011;41957;52.060;5.138;2022-08-19T13:31:21;19.10;;;9.98;;
56081;SDS011;41957;52.060;5.138;2022-08-19T13:34:06;18.40;;;9.68;;
56081;SDS011;41957;52.060;5.138;2022-08-19T13:36:32;17.13;;;9.63;;
56081;SDS011;41957;52.060;5.138;2022-08-19T13:38:59;18.40;;;9.27;;
56081;SDS011;41957;52.060;5.138;2022-08-19T13:41:24;18.23;;;10.40;;
56081;SDS011;41957;52.060;5.138;2022-08-19T13:43:50;16.77;;;8.50;;
56081;SDS011;41957;52.060;5.138;2022-08-19T13:46:16;18.65;;;8.98;;
56081;SDS011;41957;52.060;5.138;2022-08-19T13:48:41;18.70;;;8.85;;
56081;SDS011;41957;52.060;5.138;2022-08-19T13:51:07;16.92;;;9.00;;
56081;SDS011;41957;52.060;5.138;2022-08-19T13:53:37;16.77;;;9.57;;
56081;SDS011;41957;52.060;5.138;2022-08-19T13:56:06;19.92;;;9.77;;
56081;SDS011;41957;52.060;5.138;2022-08-19T13:58:33;16.20;;;9.07;;
56081;SDS011;41957;52.060;5.138;2022-08-19T14:00:59;18.17;;;9.35;;
56081;SDS011;41957;52.060;5.138;2022-08-19T14:03:25;17.67;;;9.05;;
56081;SDS011;41957;52.060;5.138;2022-08-19T14:05:51;15.77;;;8.70;;
56081;SDS011;41957;52.060;5.138;2022-08-19T14:08:17;15.93;;;9.23;;
56081;SDS011;41957;52.060;5.138;2022-08-19T14:10:43;16.20;;;8.80;;
56081;SDS011;41957;52.060;5.138;2022-08-19T14:13:09;17.48;;;8.93;;
56081;SDS011;41957;52.060;5.138;2022-08-19T14:15:35;15.80;;;8.15;;
56081;SDS011;41957;52.060;5.138;2022-08-19T14:18:02;16.00;;;8.60;;
56081;SDS011;41957;52.060;5.138;2022-08-19T14:20:29;15.15;;;8.45;;
56081;SDS011;41957;52.060;5.138;2022-08-19T14:22:54;14.18;;;8.07;;
56081;SDS011;41957;52.060;5.138;2022-08-19T14:25:25;16.67;;;9.18;;
56081;SDS011;41957;52.060;5.138;2022-08-19T14:27:52;16.70;;;9.57;;
56081;SDS011;41957;52.060;5.138;2022-08-19T14:30:19;16.73;;;9.25;;
56081;SDS011;41957;52.060;5.138;2022-08-19T14:32:47;16.45;;;9.52;;
56081;SDS011;41957;52.060;5.138;2022-08-19T14:35:13;17.50;;;9.90;;
56081;SDS011;41957;52.060;5.138;2022-08-19T14:37:40;16.00;;;9.02;;
56081;SDS011;41957;52.060;5.138;2022-08-19T14:40:07;16.33;;;9.15;;
56081;SDS011;41957;52.060;5.138;2022-08-19T14:42:33;17.17;;;9.40;;
56081;SDS011;41957;52.060;5.138;2022-08-19T14:44:59;16.63;;;8.30;;
56081;SDS011;41957;52.060;5.138;2022-08-19T14:47:25;16.83;;;9.45;;
56081;SDS011;41957;52.060;5.138;2022-08-19T14:49:51;16.50;;;8.40;;
56081;SDS011;41957;52.060;5.138;2022-08-19T14:52:17;16.35;;;9.40;;
56081;SDS011;41957;52.060;5.138;2022-08-19T14:54:43;17.10;;;9.45;;